sensor_id;sensor_type;location;lat;lon;timestamp;temperature;humidity
28845;DHT22;15976;47.938;7.758;2023-11-21T00:01:33;10.10;90.90
28845;DHT22;15976;47.938;7.758;2023-11-21T00:04:00;10.00;90.90
28845;DHT22;15976;47.938;7.758;2023-11-21T00:06:28;10.00;91.00
28845;DHT22;15976;47.938;7.758;2023-11-21T00:08:57;9.90;91.10
28845;DHT22;15976;47.938;7.758;2023-11-21T00:11:26;9.90;91.30
28845;DHT22;15976;47.938;7.758;2023-11-21T00:13:54;9.90;91.40
28845;DHT22;15976;47.938;7.758;2023-11-21T00:16:21;9.90;91.40
28845;DHT22;15976;47.938;7.758;2023-11-21T00:18:49;9.90;91.50
28845;DHT22;15976;47.938;7.758;2023-11-21T00:21:18;9.90;91.50
28845;DHT22;15976;47.938;7.758;2023-11-21T00:23:45;9.80;91.60
28845;DHT22;15976;47.938;7.758;2023-11-21T00:26:12;9.80;91.60
28845;DHT22;15976;47.938;7.758;2023-11-21T00:28:39;9.80;91.70
28845;DHT22;15976;47.938;7.758;2023-11-21T00:31:06;9.80;91.70
28845;DHT22;15976;47.938;7.758;2023-11-21T00:33:34;9.80;91.80
28845;DHT22;15976;47.938;7.758;2023-11-21T00:36:01;9.70;91.80
28845;DHT22;15976;47.938;7.758;2023-11-21T00:38:28;9.70;91.80
28845;DHT22;15976;47.938;7.758;2023-11-21T00:40:57;9.70;91.90
28845;DHT22;15976;47.938;7.758;2023-11-21T00:43:24;9.70;92.00
28845;DHT22;15976;47.938;7.758;2023-11-21T00:45:51;9.70;92.00
28845;DHT22;15976;47.938;7.758;2023-11-21T00:48:18;9.70;92.10
28845;DHT22;15976;47.938;7.758;2023-11-21T00:50:45;9.70;92.20
28845;DHT22;15976;47.938;7.758;2023-11-21T00:53:13;9.60;92.20
28845;DHT22;15976;47.938;7.758;2023-11-21T00:55:40;9.70;92.20
28845;DHT22;15976;47.938;7.758;2023-11-21T00:58:07;9.60;92.30
28845;DHT22;15976;47.938;7.758;2023-11-21T01:00:34;9.60;92.50
28845;DHT22;15976;47.938;7.758;2023-11-21T01:03:02;9.60;92.40
28845;DHT22;15976;47.938;7.758;2023-11-21T01:05:29;9.60;92.40
28845;DHT22;15976;47.938;7.758;2023-11-21T01:07:56;9.50;92.50
28845;DHT22;15976;47.938;7.758;2023-11-21T01:10:23;9.50;92.50
28845;DHT22;15976;47.938;7.758;2023-11-21T01:12:51;9.50;92.70
28845;DHT22;15976;47.938;7.758;2023-11-21T01:15:18;9.50;92.50
28845;DHT22;15976;47.938;7.758;2023-11-21T01:17:45;9.50;92.60
28845;DHT22;15976;47.938;7.758;2023-11-21T01:20:13;9.40;92.60
28845;DHT22;15976;47.938;7.758;2023-11-21T01:22:41;9.40;92.70
28845;DHT22;15976;47.938;7.758;2023-11-21T01:25:08;9.40;92.70
28845;DHT22;15976;47.938;7.758;2023-11-21T01:27:36;9.40;92.80
28845;DHT22;15976;47.938;7.758;2023-11-21T01:30:04;9.40;92.80
28845;DHT22;15976;47.938;7.758;2023-11-21T01:32:32;9.40;92.90
28845;DHT22;15976;47.938;7.758;2023-11-21T01:34:59;9.40;92.70
28845;DHT22;15976;47.938;7.758;2023-11-21T01:37:26;9.40;92.80
28845;DHT22;15976;47.938;7.758;2023-11-21T01:39:55;9.40;92.80
28845;DHT22;15976;47.938;7.758;2023-11-21T01:42:22;9.40;92.80
28845;DHT22;15976;47.938;7.758;2023-11-21T01:44:50;9.40;92.80
28845;DHT22;15976;47.938;7.758;2023-11-21T01:47:17;9.40;92.80
28845;DHT22;15976;47.938;7.758;2023-11-21T01:49:45;9.40;92.80
28845;DHT22;15976;47.938;7.758;2023-11-21T01:52:13;9.50;92.80
28845;DHT22;15976;47.938;7.758;2023-11-21T01:54:41;9.40;92.80
28845;DHT22;15976;47.938;7.758;2023-11-21T01:57:09;9.50;92.70
28845;DHT22;15976;47.938;7.758;2023-11-21T01:59:38;9.50;92.60
28845;DHT22;15976;47.938;7.758;2023-11-21T02:02:08;9.50;92.80
28845;DHT22;15976;47.938;7.758;2023-11-21T02:04:38;9.40;92.50
28845;DHT22;15976;47.938;7.758;2023-11-21T02:07:05;9.40;92.50
28845;DHT22;15976;47.938;7.758;2023-11-21T02:09:32;9.40;92.40
28845;DHT22;15976;47.938;7.758;2023-11-21T02:12:08;9.40;92.50
28845;DHT22;15976;47.938;7.758;2023-11-21T02:14:38;9.40;92.40
28845;DHT22;15976;47.938;7.758;2023-11-21T02:17:09;9.40;92.50
28845;DHT22;15976;47.938;7.758;2023-11-21T02:19:36;9.40;92.30
28845;DHT22;15976;47.938;7.758;2023-11-21T02:22:04;9.30;92.20
28845;DHT22;15976;47.938;7.758;2023-11-21T02:24:33;9.30;92.30
28845;DHT22;15976;47.938;7.758;2023-11-21T02:27:00;9.30;92.30
28845;DHT22;15976;47.938;7.758;2023-11-21T02:29:28;9.30;92.30
28845;DHT22;15976;47.938;7.758;2023-11-21T02:31:55;9.30;92.20
28845;DHT22;15976;47.938;7.758;2023-11-21T02:34:23;9.30;92.20
28845;DHT22;15976;47.938;7.758;2023-11-21T02:36:54;9.30;92.20
28845;DHT22;15976;47.938;7.758;2023-11-21T02:39:24;9.30;92.10
28845;DHT22;15976;47.938;7.758;2023-11-21T02:41:54;9.30;92.20
28845;DHT22;15976;47.938;7.758;2023-11-21T02:44:22;9.40;92.10
28845;DHT22;15976;47.938;7.758;2023-11-21T02:46:49;9.30;92.10
28845;DHT22;15976;47.938;7.758;2023-11-21T02:49:17;9.30;92.20
28845;DHT22;15976;47.938;7.758;2023-11-21T02:51:44;9.40;92.20
28845;DHT22;15976;47.938;7.758;2023-11-21T02:54:11;9.40;92.20
28845;DHT22;15976;47.938;7.758;2023-11-21T02:56:38;9.40;92.00
28845;DHT22;15976;47.938;7.758;2023-11-21T02:59:06;9.40;92.00
28845;DHT22;15976;47.938;7.758;2023-11-21T03:01:33;9.30;92.00
28845;DHT22;15976;47.938;7.758;2023-11-21T03:04:02;9.30;92.00
28845;DHT22;15976;47.938;7.758;2023-11-21T03:06:29;9.30;91.90
28845;DHT22;15976;47.938;7.758;2023-11-21T03:08:56;9.30;92.00
28845;DHT22;15976;47.938;7.758;2023-11-21T03:11:29;9.30;92.00
28845;DHT22;15976;47.938;7.758;2023-11-21T03:13:56;9.30;92.10
28845;DHT22;15976;47.938;7.758;2023-11-21T03:16:23;9.30;92.00
28845;DHT22;15976;47.938;7.758;2023-11-21T03:18:50;9.30;92.00
28845;DHT22;15976;47.938;7.758;2023-11-21T03:21:19;9.30;91.90
28845;DHT22;15976;47.938;7.758;2023-11-21T03:23:46;9.30;92.00
28845;DHT22;15976;47.938;7.758;2023-11-21T03:26:13;9.30;92.00
28845;DHT22;15976;47.938;7.758;2023-11-21T03:28:40;9.20;92.00
28845;DHT22;15976;47.938;7.758;2023-11-21T03:31:07;9.30;92.00
28845;DHT22;15976;47.938;7.758;2023-11-21T03:33:36;9.30;92.10
28845;DHT22;15976;47.938;7.758;2023-11-21T03:36:03;9.40;92.00
28845;DHT22;15976;47.938;7.758;2023-11-21T03:38:30;9.50;91.90
28845;DHT22;15976;47.938;7.758;2023-11-21T03:40:58;9.50;91.80
28845;DHT22;15976;47.938;7.758;2023-11-21T03:43:28;9.50;91.90
28845;DHT22;15976;47.938;7.758;2023-11-21T03:45:55;9.50;91.70
28845;DHT22;15976;47.938;7.758;2023-11-21T03:48:22;9.50;91.70
28845;DHT22;15976;47.938;7.758;2023-11-21T03:50:50;9.50;91.60
28845;DHT22;15976;47.938;7.758;2023-11-21T03:53:17;9.50;91.50
28845;DHT22;15976;47.938;7.758;2023-11-21T03:55:44;9.50;91.60
28845;DHT22;15976;47.938;7.758;2023-11-21T03:58:13;9.50;91.50
28845;DHT22;15976;47.938;7.758;2023-11-21T04:00:40;9.50;91.50
28845;DHT22;15976;47.938;7.758;2023-11-21T04:03:07;9.60;91.50
28845;DHT22;15976;47.938;7.758;2023-11-21T04:05:34;9.60;91.40
28845;DHT22;15976;47.938;7.758;2023-11-21T04:08:01;9.60;91.40
28845;DHT22;15976;47.938;7.758;2023-11-21T04:10:28;9.70;91.50
28845;DHT22;15976;47.938;7.758;2023-11-21T04:12:55;9.70;91.30
28845;DHT22;15976;47.938;7.758;2023-11-21T04:15:22;9.80;91.30
28845;DHT22;15976;47.938;7.758;2023-11-21T04:17:50;9.80;91.10
28845;DHT22;15976;47.938;7.758;2023-11-21T04:20:17;9.80;91.10
28845;DHT22;15976;47.938;7.758;2023-11-21T04:22:44;9.80;90.90
28845;DHT22;15976;47.938;7.758;2023-11-21T04:25:14;9.80;90.80
28845;DHT22;15976;47.938;7.758;2023-11-21T04:27:43;9.80;90.80
28845;DHT22;15976;47.938;7.758;2023-11-21T04:30:12;9.90;90.70
28845;DHT22;15976;47.938;7.758;2023-11-21T04:32:39;9.90;90.60
28845;DHT22;15976;47.938;7.758;2023-11-21T04:35:06;9.90;90.60
28845;DHT22;15976;47.938;7.758;2023-11-21T04:37:36;9.90;90.60
28845;DHT22;15976;47.938;7.758;2023-11-21T04:40:04;10.00;90.50
28845;DHT22;15976;47.938;7.758;2023-11-21T04:42:37;10.00;90.40
28845;DHT22;15976;47.938;7.758;2023-11-21T04:45:07;10.10;90.30
28845;DHT22;15976;47.938;7.758;2023-11-21T04:47:40;10.10;90.20
28845;DHT22;15976;47.938;7.758;2023-11-21T04:50:07;10.10;90.10
28845;DHT22;15976;47.938;7.758;2023-11-21T04:52:34;10.10;90.00
28845;DHT22;15976;47.938;7.758;2023-11-21T04:55:02;10.10;89.60
28845;DHT22;15976;47.938;7.758;2023-11-21T04:57:29;10.10;89.60
28845;DHT22;15976;47.938;7.758;2023-11-21T04:59:56;10.10;89.40
28845;DHT22;15976;47.938;7.758;2023-11-21T05:02:24;10.10;89.40
28845;DHT22;15976;47.938;7.758;2023-11-21T05:05:04;10.20;89.30
28845;DHT22;15976;47.938;7.758;2023-11-21T05:07:33;10.20;89.20
28845;DHT22;15976;47.938;7.758;2023-11-21T05:10:05;10.20;89.20
28845;DHT22;15976;47.938;7.758;2023-11-21T05:12:35;10.20;89.20
28845;DHT22;15976;47.938;7.758;2023-11-21T05:15:06;10.20;89.00
28845;DHT22;15976;47.938;7.758;2023-11-21T05:17:40;10.20;88.60
28845;DHT22;15976;47.938;7.758;2023-11-21T05:20:12;10.20;88.70
28845;DHT22;15976;47.938;7.758;2023-11-21T05:22:41;10.20;89.00
28845;DHT22;15976;47.938;7.758;2023-11-21T05:25:09;10.20;89.20
28845;DHT22;15976;47.938;7.758;2023-11-21T05:27:36;10.10;89.20
28845;DHT22;15976;47.938;7.758;2023-11-21T05:30:05;10.20;89.40
28845;DHT22;15976;47.938;7.758;2023-11-21T05:32:32;10.10;89.30
28845;DHT22;15976;47.938;7.758;2023-11-21T05:35:01;10.00;89.50
28845;DHT22;15976;47.938;7.758;2023-11-21T05:37:28;10.00;90.00
28845;DHT22;15976;47.938;7.758;2023-11-21T05:39:56;10.00;90.20
28845;DHT22;15976;47.938;7.758;2023-11-21T05:42:23;10.00;90.30
28845;DHT22;15976;47.938;7.758;2023-11-21T05:44:50;9.90;90.50
28845;DHT22;15976;47.938;7.758;2023-11-21T05:47:17;9.90;90.60
28845;DHT22;15976;47.938;7.758;2023-11-21T05:49:45;9.90;90.80
28845;DHT22;15976;47.938;7.758;2023-11-21T05:52:17;9.90;90.90
28845;DHT22;15976;47.938;7.758;2023-11-21T05:54:45;9.90;91.00
28845;DHT22;15976;47.938;7.758;2023-11-21T05:57:13;9.80;91.10
28845;DHT22;15976;47.938;7.758;2023-11-21T05:59:39;9.80;91.20
28845;DHT22;15976;47.938;7.758;2023-11-21T06:02:06;9.90;91.20
28845;DHT22;15976;47.938;7.758;2023-11-21T06:04:34;9.80;91.30
28845;DHT22;15976;47.938;7.758;2023-11-21T06:07:02;9.80;91.40
28845;DHT22;15976;47.938;7.758;2023-11-21T06:09:29;9.90;91.50
28845;DHT22;15976;47.938;7.758;2023-11-21T06:11:56;9.90;91.60
28845;DHT22;15976;47.938;7.758;2023-11-21T06:14:23;9.90;91.60
28845;DHT22;15976;47.938;7.758;2023-11-21T06:16:50;9.90;91.60
28845;DHT22;15976;47.938;7.758;2023-11-21T06:19:19;9.90;91.60
28845;DHT22;15976;47.938;7.758;2023-11-21T06:21:46;9.90;91.60
28845;DHT22;15976;47.938;7.758;2023-11-21T06:24:14;10.00;91.70
28845;DHT22;15976;47.938;7.758;2023-11-21T06:26:42;10.00;91.70
28845;DHT22;15976;47.938;7.758;2023-11-21T06:29:10;9.90;91.60
28845;DHT22;15976;47.938;7.758;2023-11-21T06:31:37;9.90;91.50
28845;DHT22;15976;47.938;7.758;2023-11-21T06:34:04;9.90;91.60
28845;DHT22;15976;47.938;7.758;2023-11-21T06:36:32;9.80;91.60
28845;DHT22;15976;47.938;7.758;2023-11-21T06:38:58;9.80;91.70
28845;DHT22;15976;47.938;7.758;2023-11-21T06:41:25;9.80;91.80
28845;DHT22;15976;47.938;7.758;2023-11-21T06:43:53;9.70;91.80
28845;DHT22;15976;47.938;7.758;2023-11-21T06:46:20;9.70;91.90
28845;DHT22;15976;47.938;7.758;2023-11-21T06:48:47;9.80;91.90
28845;DHT22;15976;47.938;7.758;2023-11-21T06:51:16;9.70;91.90
28845;DHT22;15976;47.938;7.758;2023-11-21T06:53:43;9.70;91.80
28845;DHT22;15976;47.938;7.758;2023-11-21T06:56:18;9.70;91.80
28845;DHT22;15976;47.938;7.758;2023-11-21T06:58:46;9.70;91.80
28845;DHT22;15976;47.938;7.758;2023-11-21T07:01:13;9.70;91.90
28845;DHT22;15976;47.938;7.758;2023-11-21T07:03:41;9.70;91.80
28845;DHT22;15976;47.938;7.758;2023-11-21T07:06:09;9.70;91.80
28845;DHT22;15976;47.938;7.758;2023-11-21T07:08:36;9.80;91.70
28845;DHT22;15976;47.938;7.758;2023-11-21T07:11:04;9.80;91.70
28845;DHT22;15976;47.938;7.758;2023-11-21T07:13:31;9.80;91.60
28845;DHT22;15976;47.938;7.758;2023-11-21T07:15:59;9.80;91.90
28845;DHT22;15976;47.938;7.758;2023-11-21T07:18:26;9.90;91.50
28845;DHT22;15976;47.938;7.758;2023-11-21T07:20:54;9.90;91.50
28845;DHT22;15976;47.938;7.758;2023-11-21T07:23:21;9.90;91.40
28845;DHT22;15976;47.938;7.758;2023-11-21T07:25:49;10.00;91.30
28845;DHT22;15976;47.938;7.758;2023-11-21T07:28:16;10.00;91.30
28845;DHT22;15976;47.938;7.758;2023-11-21T07:30:43;10.00;91.30
28845;DHT22;15976;47.938;7.758;2023-11-21T07:33:10;10.00;91.30
28845;DHT22;15976;47.938;7.758;2023-11-21T07:35:38;10.10;91.40
28845;DHT22;15976;47.938;7.758;2023-11-21T07:38:05;10.20;91.40
28845;DHT22;15976;47.938;7.758;2023-11-21T07:40:32;10.20;91.40
28845;DHT22;15976;47.938;7.758;2023-11-21T07:42:59;10.30;91.40
28845;DHT22;15976;47.938;7.758;2023-11-21T07:45:28;10.40;91.30
28845;DHT22;15976;47.938;7.758;2023-11-21T07:47:55;10.50;91.30
28845;DHT22;15976;47.938;7.758;2023-11-21T07:50:22;10.50;91.20
28845;DHT22;15976;47.938;7.758;2023-11-21T07:52:50;10.60;91.30
28845;DHT22;15976;47.938;7.758;2023-11-21T07:55:17;10.70;91.10
28845;DHT22;15976;47.938;7.758;2023-11-21T07:57:44;10.80;91.00
28845;DHT22;15976;47.938;7.758;2023-11-21T08:00:12;11.00;90.90
28845;DHT22;15976;47.938;7.758;2023-11-21T08:02:39;11.10;90.70
28845;DHT22;15976;47.938;7.758;2023-11-21T08:05:09;11.10;90.50
28845;DHT22;15976;47.938;7.758;2023-11-21T08:07:50;11.20;90.40
28845;DHT22;15976;47.938;7.758;2023-11-21T08:10:17;11.30;90.30
28845;DHT22;15976;47.938;7.758;2023-11-21T08:12:44;11.30;90.10
28845;DHT22;15976;47.938;7.758;2023-11-21T08:15:11;11.30;90.00
28845;DHT22;15976;47.938;7.758;2023-11-21T08:17:38;11.30;90.00
28845;DHT22;15976;47.938;7.758;2023-11-21T08:20:06;11.30;90.10
28845;DHT22;15976;47.938;7.758;2023-11-21T08:22:36;11.40;90.00
28845;DHT22;15976;47.938;7.758;2023-11-21T08:25:03;11.40;90.00
28845;DHT22;15976;47.938;7.758;2023-11-21T08:27:31;11.40;89.80
28845;DHT22;15976;47.938;7.758;2023-11-21T08:29:58;11.40;89.50
28845;DHT22;15976;47.938;7.758;2023-11-21T08:32:25;11.50;89.60
28845;DHT22;15976;47.938;7.758;2023-11-21T08:34:53;11.50;89.20
28845;DHT22;15976;47.938;7.758;2023-11-21T08:37:20;11.50;88.70
28845;DHT22;15976;47.938;7.758;2023-11-21T08:39:47;11.50;88.60
28845;DHT22;15976;47.938;7.758;2023-11-21T08:42:20;11.50;88.70
28845;DHT22;15976;47.938;7.758;2023-11-21T08:44:47;11.50;88.80
28845;DHT22;15976;47.938;7.758;2023-11-21T08:47:14;11.50;88.50
28845;DHT22;15976;47.938;7.758;2023-11-21T08:49:41;11.60;88.40
28845;DHT22;15976;47.938;7.758;2023-11-21T08:52:08;11.60;88.10
28845;DHT22;15976;47.938;7.758;2023-11-21T08:54:35;11.60;87.80
28845;DHT22;15976;47.938;7.758;2023-11-21T08:57:03;11.60;87.70
28845;DHT22;15976;47.938;7.758;2023-11-21T08:59:30;11.70;87.70
28845;DHT22;15976;47.938;7.758;2023-11-21T09:01:57;11.70;87.30
28845;DHT22;15976;47.938;7.758;2023-11-21T09:04:24;11.70;87.50
28845;DHT22;15976;47.938;7.758;2023-11-21T09:06:51;11.70;87.30
28845;DHT22;15976;47.938;7.758;2023-11-21T09:09:18;11.70;87.40
28845;DHT22;15976;47.938;7.758;2023-11-21T09:11:47;11.70;87.30
28845;DHT22;15976;47.938;7.758;2023-11-21T09:14:15;11.80;87.60
28845;DHT22;15976;47.938;7.758;2023-11-21T09:16:44;11.80;87.40
28845;DHT22;15976;47.938;7.758;2023-11-21T09:19:12;11.80;87.40
28845;DHT22;15976;47.938;7.758;2023-11-21T09:21:41;11.90;87.40
28845;DHT22;15976;47.938;7.758;2023-11-21T09:24:08;11.90;87.10
28845;DHT22;15976;47.938;7.758;2023-11-21T09:26:35;12.00;86.60
28845;DHT22;15976;47.938;7.758;2023-11-21T09:29:02;12.10;86.20
28845;DHT22;15976;47.938;7.758;2023-11-21T09:31:30;12.10;85.80
28845;DHT22;15976;47.938;7.758;2023-11-21T09:33:58;12.20;85.80
28845;DHT22;15976;47.938;7.758;2023-11-21T09:36:25;12.20;85.30
28845;DHT22;15976;47.938;7.758;2023-11-21T09:38:55;12.20;85.20
28845;DHT22;15976;47.938;7.758;2023-11-21T09:41:56;12.20;84.80
28845;DHT22;15976;47.938;7.758;2023-11-21T09:44:48;12.20;84.10
28845;DHT22;15976;47.938;7.758;2023-11-21T09:47:18;12.20;83.70
28845;DHT22;15976;47.938;7.758;2023-11-21T09:49:48;12.20;83.80
28845;DHT22;15976;47.938;7.758;2023-11-21T09:52:25;12.20;83.90
28845;DHT22;15976;47.938;7.758;2023-11-21T09:54:53;12.20;83.70
28845;DHT22;15976;47.938;7.758;2023-11-21T09:57:21;12.20;83.50
28845;DHT22;15976;47.938;7.758;2023-11-21T09:59:52;12.20;83.60
28845;DHT22;15976;47.938;7.758;2023-11-21T10:02:27;12.20;83.30
28845;DHT22;15976;47.938;7.758;2023-11-21T10:04:59;12.20;83.20
28845;DHT22;15976;47.938;7.758;2023-11-21T10:07:28;12.30;83.30
28845;DHT22;15976;47.938;7.758;2023-11-21T10:09:59;12.30;82.90
28845;DHT22;15976;47.938;7.758;2023-11-21T10:12:28;12.30;83.00
28845;DHT22;15976;47.938;7.758;2023-11-21T10:14:58;12.40;82.40
28845;DHT22;15976;47.938;7.758;2023-11-21T10:17:28;12.40;82.00
28845;DHT22;15976;47.938;7.758;2023-11-21T10:19:58;12.40;81.80
28845;DHT22;15976;47.938;7.758;2023-11-21T10:22:26;12.40;81.80
28845;DHT22;15976;47.938;7.758;2023-11-21T10:24:53;12.30;81.40
28845;DHT22;15976;47.938;7.758;2023-11-21T10:27:20;12.20;81.50
28845;DHT22;15976;47.938;7.758;2023-11-21T10:29:47;12.10;81.80
28845;DHT22;15976;47.938;7.758;2023-11-21T10:32:14;12.10;82.30
28845;DHT22;15976;47.938;7.758;2023-11-21T10:34:42;12.00;82.60
28845;DHT22;15976;47.938;7.758;2023-11-21T10:37:12;12.00;82.90
28845;DHT22;15976;47.938;7.758;2023-11-21T10:39:40;12.00;83.30
28845;DHT22;15976;47.938;7.758;2023-11-21T10:42:08;11.90;83.50
28845;DHT22;15976;47.938;7.758;2023-11-21T10:44:37;11.90;83.80
28845;DHT22;15976;47.938;7.758;2023-11-21T10:47:04;12.00;84.10
28845;DHT22;15976;47.938;7.758;2023-11-21T10:49:32;11.90;84.20
28845;DHT22;15976;47.938;7.758;2023-11-21T10:51:59;11.90;84.20
28845;DHT22;15976;47.938;7.758;2023-11-21T10:54:26;11.90;84.10
28845;DHT22;15976;47.938;7.758;2023-11-21T10:56:57;11.90;84.10
28845;DHT22;15976;47.938;7.758;2023-11-21T10:59:29;11.90;83.90
28845;DHT22;15976;47.938;7.758;2023-11-21T11:01:59;11.90;83.90
28845;DHT22;15976;47.938;7.758;2023-11-21T11:04:30;12.00;83.90
28845;DHT22;15976;47.938;7.758;2023-11-21T11:07:03;12.00;83.40
28845;DHT22;15976;47.938;7.758;2023-11-21T11:09:32;12.00;83.10
28845;DHT22;15976;47.938;7.758;2023-11-21T11:12:04;12.00;83.60
28845;DHT22;15976;47.938;7.758;2023-11-21T11:14:32;12.00;83.60
28845;DHT22;15976;47.938;7.758;2023-11-21T11:17:01;12.00;83.40
28845;DHT22;15976;47.938;7.758;2023-11-21T11:19:29;12.10;83.30
28845;DHT22;15976;47.938;7.758;2023-11-21T11:28:26;12.10;82.90
28845;DHT22;15976;47.938;7.758;2023-11-21T11:33:48;11.90;83.10
28845;DHT22;15976;47.938;7.758;2023-11-21T11:36:31;11.90;83.40
28845;DHT22;15976;47.938;7.758;2023-11-21T11:39:01;11.90;83.70
28845;DHT22;15976;47.938;7.758;2023-11-21T11:41:31;11.80;83.80
28845;DHT22;15976;47.938;7.758;2023-11-21T11:44:01;11.80;84.70
28845;DHT22;15976;47.938;7.758;2023-11-21T11:46:44;11.80;84.00
28845;DHT22;15976;47.938;7.758;2023-11-21T11:49:29;11.80;83.90
28845;DHT22;15976;47.938;7.758;2023-11-21T11:55:10;11.80;84.00
28845;DHT22;15976;47.938;7.758;2023-11-21T11:57:41;11.80;84.10
28845;DHT22;15976;47.938;7.758;2023-11-21T12:02:58;11.90;83.90
28845;DHT22;15976;47.938;7.758;2023-11-21T12:05:27;11.90;84.00
28845;DHT22;15976;47.938;7.758;2023-11-21T12:07:59;12.00;83.90
28845;DHT22;15976;47.938;7.758;2023-11-21T12:10:32;12.00;83.60
28845;DHT22;15976;47.938;7.758;2023-11-21T12:13:02;12.00;83.60
28845;DHT22;15976;47.938;7.758;2023-11-21T12:15:29;12.00;83.80
28845;DHT22;15976;47.938;7.758;2023-11-21T12:17:58;12.00;83.70
28845;DHT22;15976;47.938;7.758;2023-11-21T12:20:28;12.00;83.60
28845;DHT22;15976;47.938;7.758;2023-11-21T12:22:57;12.00;83.90
28845;DHT22;15976;47.938;7.758;2023-11-21T12:25:29;11.90;83.90
28845;DHT22;15976;47.938;7.758;2023-11-21T12:27:57;11.90;83.90
28845;DHT22;15976;47.938;7.758;2023-11-21T12:30:27;11.90;84.00
28845;DHT22;15976;47.938;7.758;2023-11-21T12:33:03;11.90;84.30
28845;DHT22;15976;47.938;7.758;2023-11-21T12:35:35;11.80;84.40
28845;DHT22;15976;47.938;7.758;2023-11-21T12:38:03;11.80;84.70
28845;DHT22;15976;47.938;7.758;2023-11-21T12:40:31;11.80;85.10
28845;DHT22;15976;47.938;7.758;2023-11-21T12:43:00;11.80;85.60
28845;DHT22;15976;47.938;7.758;2023-11-21T12:45:32;11.80;85.40
28845;DHT22;15976;47.938;7.758;2023-11-21T12:48:04;11.90;85.20
28845;DHT22;15976;47.938;7.758;2023-11-21T12:50:36;12.00;85.20
28845;DHT22;15976;47.938;7.758;2023-11-21T12:53:08;12.00;84.60
28845;DHT22;15976;47.938;7.758;2023-11-21T12:55:37;12.10;84.40
28845;DHT22;15976;47.938;7.758;2023-11-21T12:58:07;12.20;84.10
28845;DHT22;15976;47.938;7.758;2023-11-21T13:00:40;12.20;83.90
28845;DHT22;15976;47.938;7.758;2023-11-21T13:03:12;12.30;84.10
28845;DHT22;15976;47.938;7.758;2023-11-21T13:05:44;12.30;84.00
28845;DHT22;15976;47.938;7.758;2023-11-21T13:08:15;12.40;83.70
28845;DHT22;15976;47.938;7.758;2023-11-21T13:10:52;12.40;83.20
28845;DHT22;15976;47.938;7.758;2023-11-21T13:13:21;12.50;83.30
28845;DHT22;15976;47.938;7.758;2023-11-21T13:15:52;12.60;83.30
28845;DHT22;15976;47.938;7.758;2023-11-21T13:18:22;12.70;82.80
28845;DHT22;15976;47.938;7.758;2023-11-21T13:20:50;12.90;82.30
28845;DHT22;15976;47.938;7.758;2023-11-21T13:23:17;12.90;81.60
28845;DHT22;15976;47.938;7.758;2023-11-21T13:25:45;12.80;81.30
28845;DHT22;15976;47.938;7.758;2023-11-21T13:28:23;12.70;81.60
28845;DHT22;15976;47.938;7.758;2023-11-21T13:30:51;12.60;81.70
28845;DHT22;15976;47.938;7.758;2023-11-21T13:33:21;12.50;81.80
28845;DHT22;15976;47.938;7.758;2023-11-21T13:35:54;12.50;82.00
28845;DHT22;15976;47.938;7.758;2023-11-21T13:38:23;12.40;82.20
28845;DHT22;15976;47.938;7.758;2023-11-21T13:40:52;12.30;82.50
28845;DHT22;15976;47.938;7.758;2023-11-21T13:43:23;12.20;82.70
28845;DHT22;15976;47.938;7.758;2023-11-21T13:45:53;12.20;82.80
28845;DHT22;15976;47.938;7.758;2023-11-21T13:48:30;12.20;83.20
28845;DHT22;15976;47.938;7.758;2023-11-21T13:51:04;12.10;83.20
28845;DHT22;15976;47.938;7.758;2023-11-21T13:53:37;12.10;83.20
28845;DHT22;15976;47.938;7.758;2023-11-21T13:56:05;12.10;83.30
28845;DHT22;15976;47.938;7.758;2023-11-21T13:58:33;11.90;83.40
28845;DHT22;15976;47.938;7.758;2023-11-21T14:01:18;11.90;83.70
28845;DHT22;15976;47.938;7.758;2023-11-21T14:04:11;11.90;83.80
28845;DHT22;15976;47.938;7.758;2023-11-21T14:06:49;11.80;83.70
28845;DHT22;15976;47.938;7.758;2023-11-21T14:09:19;11.80;84.10
28845;DHT22;15976;47.938;7.758;2023-11-21T14:11:56;11.80;84.40
28845;DHT22;15976;47.938;7.758;2023-11-21T14:14:26;11.70;84.50
28845;DHT22;15976;47.938;7.758;2023-11-21T14:16:54;11.80;84.60
28845;DHT22;15976;47.938;7.758;2023-11-21T14:19:26;11.70;84.60
28845;DHT22;15976;47.938;7.758;2023-11-21T14:22:00;11.70;84.70
28845;DHT22;15976;47.938;7.758;2023-11-21T14:24:27;11.70;84.90
28845;DHT22;15976;47.938;7.758;2023-11-21T14:26:56;11.80;84.90
28845;DHT22;15976;47.938;7.758;2023-11-21T14:29:24;11.80;84.80
28845;DHT22;15976;47.938;7.758;2023-11-21T14:31:51;11.80;85.00
28845;DHT22;15976;47.938;7.758;2023-11-21T14:34:20;11.80;85.00
28845;DHT22;15976;47.938;7.758;2023-11-21T14:36:52;11.80;84.80
28845;DHT22;15976;47.938;7.758;2023-11-21T14:39:19;11.80;84.80
28845;DHT22;15976;47.938;7.758;2023-11-21T14:41:56;11.70;84.60
28845;DHT22;15976;47.938;7.758;2023-11-21T14:44:46;11.70;84.50
28845;DHT22;15976;47.938;7.758;2023-11-21T14:47:19;11.70;84.50
28845;DHT22;15976;47.938;7.758;2023-11-21T14:54:04;11.60;84.60
28845;DHT22;15976;47.938;7.758;2023-11-21T14:57:09;11.60;84.90
28845;DHT22;15976;47.938;7.758;2023-11-21T14:59:45;11.50;85.00
28845;DHT22;15976;47.938;7.758;2023-11-21T15:02:25;11.50;85.10
28845;DHT22;15976;47.938;7.758;2023-11-21T15:05:11;11.40;85.10
28845;DHT22;15976;47.938;7.758;2023-11-21T15:07:42;11.40;85.10
28845;DHT22;15976;47.938;7.758;2023-11-21T15:10:10;11.40;85.20
28845;DHT22;15976;47.938;7.758;2023-11-21T15:12:42;11.40;85.20
28845;DHT22;15976;47.938;7.758;2023-11-21T15:15:11;11.40;85.40
28845;DHT22;15976;47.938;7.758;2023-11-21T15:17:41;11.40;85.40
28845;DHT22;15976;47.938;7.758;2023-11-21T15:20:11;11.40;85.60
28845;DHT22;15976;47.938;7.758;2023-11-21T15:22:45;11.30;85.60
28845;DHT22;15976;47.938;7.758;2023-11-21T15:25:13;11.30;85.60
28845;DHT22;15976;47.938;7.758;2023-11-21T15:27:40;11.30;85.60
28845;DHT22;15976;47.938;7.758;2023-11-21T15:30:08;11.30;85.70
28845;DHT22;15976;47.938;7.758;2023-11-21T15:32:35;11.30;85.80
28845;DHT22;15976;47.938;7.758;2023-11-21T15:35:03;11.30;85.80
28845;DHT22;15976;47.938;7.758;2023-11-21T15:37:30;11.30;85.80
28845;DHT22;15976;47.938;7.758;2023-11-21T15:39:57;11.20;85.90
28845;DHT22;15976;47.938;7.758;2023-11-21T15:42:24;11.20;85.90
28845;DHT22;15976;47.938;7.758;2023-11-21T15:44:51;11.20;85.90
28845;DHT22;15976;47.938;7.758;2023-11-21T15:47:18;11.20;86.10
28845;DHT22;15976;47.938;7.758;2023-11-21T15:49:46;11.20;86.30
28845;DHT22;15976;47.938;7.758;2023-11-21T15:52:17;11.20;86.40
28845;DHT22;15976;47.938;7.758;2023-11-21T15:54:44;11.20;86.50
28845;DHT22;15976;47.938;7.758;2023-11-21T15:57:13;11.20;86.40
28845;DHT22;15976;47.938;7.758;2023-11-21T15:59:41;11.20;86.40
28845;DHT22;15976;47.938;7.758;2023-11-21T16:02:10;11.10;86.40
28845;DHT22;15976;47.938;7.758;2023-11-21T16:04:39;11.10;86.40
28845;DHT22;15976;47.938;7.758;2023-11-21T16:07:09;11.10;86.50
28845;DHT22;15976;47.938;7.758;2023-11-21T16:09:38;11.00;86.50